Time;durP1;ratioP1;P1;durP2;ratioP2;P2;SDS_P1;SDS_P2;PMS_P1;PMS_P2;Temp;Humidity;BMP_temperature;BMP_pressure;BME280_temperature;BME280_humidity;BME280_pressure;Samples;Min_cycle;Max_cycle;Signal;HPM_P1;HPM_P2
2022/05/27 00:00:19;;;;;;;7.10;6.70;;;;;;;21.48;66.89;99984.34;4995202;28;20042;-59
2022/05/27 00:02:46;;;;;;;7.68;7.28;;;;;;;21.52;67.61;99980.16;4995154;28;20029;-59
2022/05/27 00:05:12;;;;;;;7.00;6.70;;;;;;;21.52;66.94;99986.47;4995710;28;20390;-59
2022/05/27 00:07:38;;;;;;;7.55;7.25;;;;;;;21.57;67.35;99983.91;4994973;28;20026;-59
2022/05/27 00:10:04;;;;;;;6.95;6.65;;;;;;;21.57;67.40;99983.09;4994941;28;20031;-59
2022/05/27 00:12:30;;;;;;;6.90;6.60;;;;;;;21.59;66.38;99972.75;4995087;28;20490;-58
2022/05/27 00:14:55;;;;;;;7.32;6.93;;;;;;;21.58;66.97;99973.81;4994075;28;20104;-59
2022/05/27 00:17:20;;;;;;;7.25;6.95;;;;;;;21.60;66.90;99968.97;4994802;28;20028;-60
2022/05/27 00:19:46;;;;;;;6.70;6.40;;;;;;;21.62;66.07;99969.59;4994827;28;20092;-59
2022/05/27 00:22:11;;;;;;;7.07;6.78;;;;;;;21.62;66.06;99958.66;4994589;28;20046;-58
2022/05/27 00:24:37;;;;;;;6.93;6.63;;;;;;;21.63;66.24;99954.88;4994573;28;20034;-59
2022/05/27 00:27:03;;;;;;;7.07;6.78;;;;;;;21.65;65.38;99958.22;4994701;28;20038;-59
2022/05/27 00:29:29;;;;;;;6.60;6.40;;;;;;;21.65;65.75;99952.75;4994559;28;20030;-58
2022/05/27 00:31:54;;;;;;;6.50;6.30;;;;;;;21.66;65.22;99951.69;4994526;28;20032;-59
2022/05/27 00:34:19;;;;;;;7.38;7.07;;;;;;;21.68;66.01;99949.63;4994498;28;20066;-59
2022/05/27 00:36:44;;;;;;;7.22;6.93;;;;;;;21.67;65.88;99939.72;4994465;28;20048;-59
2022/05/27 00:39:10;;;;;;;7.35;7.05;;;;;;;21.68;65.27;99946.88;4994438;28;20059;-59
2022/05/27 00:41:35;;;;;;;6.82;6.53;;;;;;;21.70;65.38;99950.25;4994386;28;20022;-59
2022/05/27 00:44:00;;;;;;;6.80;6.50;;;;;;;21.69;65.33;99950.47;4994461;28;20464;-58
2022/05/27 00:46:29;;;;;;;7.13;6.82;;;;;;;21.69;65.17;99942.25;4994149;28;20069;-59
2022/05/27 00:49:05;;;;;;;6.95;6.65;;;;;;;21.71;64.87;99935.50;4995328;28;20061;-59
2022/05/27 00:51:34;;;;;;;6.72;6.53;;;;;;;21.69;64.94;99943.09;4994185;28;20018;-58
2022/05/27 00:54:09;;;;;;;6.90;6.60;;;;;;;21.72;64.74;99942.66;4994184;28;20034;-58
2022/05/27 00:56:39;;;;;;;6.80;6.50;;;;;;;21.70;64.27;99939.28;4994263;28;20485;-58
2022/05/27 00:59:13;;;;;;;7.70;7.22;;;;;;;21.70;64.59;99936.56;4994116;28;20109;-58
2022/05/27 01:01:38;;;;;;;;;;;;;;;21.68;64.90;99932.38;4994454;28;20165;-59
2022/05/27 01:04:05;;;;;;;6.60;6.30;;;;;;;21.72;64.79;99937.19;4994058;28;20365;-58
2022/05/27 01:06:30;;;;;;;7.53;7.22;;;;;;;21.70;64.42;99933.81;4994092;28;20077;-59
2022/05/27 01:08:56;;;;;;;6.85;6.55;;;;;;;21.70;64.84;99931.09;4994076;28;20018;-59
2022/05/27 01:11:52;;;;;;;7.30;7.00;;;;;;;21.71;64.84;99929.19;4993670;28;20038;-58
2022/05/27 01:14:31;;;;;;;7.50;7.20;;;;;;;21.73;64.16;99927.91;4992001;28;20038;-59
2022/05/27 01:17:22;;;;;;;6.90;6.60;;;;;;;21.73;64.66;99925.19;4993787;28;20462;-58
2022/05/27 01:20:19;;;;;;;7.20;6.90;;;;;;;21.73;64.12;99922.44;4993744;28;20030;-58
2022/05/27 01:23:27;;;;;;;7.32;7.03;;;;;;;21.75;64.98;99920.34;4993481;28;20398;-59
2022/05/27 01:26:27;;;;;;;7.25;6.95;;;;;;;21.74;64.44;99924.13;4990568;28;20038;-58
2022/05/27 01:29:09;;;;;;;6.95;6.68;;;;;;;21.74;64.82;99917.81;4971716;28;20034;-59
2022/05/27 01:31:48;;;;;;;7.28;6.97;;;;;;;21.73;64.90;99916.97;4971500;28;20033;-59
2022/05/27 01:34:23;;;;;;;6.78;6.47;;;;;;;21.72;64.04;99915.28;4971623;28;20074;-59
2022/05/27 01:37:15;;;;;;;6.70;6.45;;;;;;;21.72;64.47;99912.56;4971700;28;20052;-60
2022/05/27 01:39:47;;;;;;;7.03;6.75;;;;;;;21.73;63.78;99911.50;4972850;28;20163;-59
2022/05/27 01:42:24;;;;;;;7.10;6.80;;;;;;;21.74;64.04;99896.78;4971604;28;20030;-59
2022/05/27 01:45:09;;;;;;;6.93;6.63;;;;;;;21.75;64.59;99898.44;4971623;28;20027;-59
2022/05/27 01:47:43;;;;;;;6.90;6.60;;;;;;;21.74;64.29;99902.25;4971396;28;20030;-59
2022/05/27 01:50:16;;;;;;;6.93;6.63;;;;;;;21.71;64.83;99897.22;4971455;28;20117;-59
2022/05/27 01:52:53;;;;;;;7.10;6.80;;;;;;;21.73;64.06;99900.56;4971425;28;20273;-59
2022/05/27 01:55:36;;;;;;;6.88;6.57;;;;;;;21.75;64.44;99898.44;4971331;28;20291;-59
2022/05/27 01:58:07;;;;;;;7.20;6.90;;;;;;;21.73;64.45;99897.81;4971397;28;20125;-59
2022/05/27 02:00:35;;;;;;;7.10;6.80;;;;;;;21.74;64.46;99894.03;4971221;28;20039;-59
2022/05/27 02:03:24;;;;;;;7.20;6.90;;;;;;;21.74;64.81;99907.72;4971409;28;20030;-58
2022/05/27 02:06:02;;;;;;;6.93;6.63;;;;;;;21.73;64.05;99895.09;4983444;28;20042;-59
2022/05/27 02:08:32;;;;;;;6.80;6.50;;;;;;;21.74;65.03;99896.78;4993047;28;20037;-59
2022/05/27 02:11:02;;;;;;;7.18;6.80;;;;;;;21.73;64.85;99892.34;4993049;28;20030;-58
2022/05/27 02:13:38;;;;;;;7.00;6.70;;;;;;;21.75;64.20;99892.97;4991582;28;20041;-58
2022/05/27 02:16:04;;;;;;;7.00;6.70;;;;;;;21.74;64.88;99885.00;4993053;28;20033;-59
2022/05/27 02:18:33;;;;;;;7.30;7.00;;;;;;;21.75;63.88;99882.03;4991557;28;20030;-58
2022/05/27 02:21:09;;;;;;;6.88;6.57;;;;;;;21.72;65.15;99885.22;4993117;28;20037;-59
2022/05/27 02:23:44;;;;;;;6.80;6.50;;;;;;;21.75;64.79;99882.03;4992804;28;20405;-59
2022/05/27 02:26:19;;;;;;;7.00;6.70;;;;;;;21.75;64.88;99879.28;4993242;28;20409;-59
2022/05/27 02:28:58;;;;;;;6.70;6.40;;;;;;;21.71;64.02;99880.78;4993843;28;20450;-57
2022/05/27 02:31:28;;;;;;;6.90;6.60;;;;;;;21.71;64.46;99875.31;4992879;28;20072;-58
2022/05/27 02:36:52;;;;;;;6.72;6.43;;;;;;;21.74;64.26;99869.41;4993507;28;20488;-58
2022/05/27 02:39:18;;;;;;;7.03;6.72;;;;;;;21.73;64.67;99872.38;4996561;28;20403;-59
2022/05/27 02:42:00;;;;;;;7.47;7.18;;;;;;;21.70;65.10;99870.91;4995387;28;20058;-58
2022/05/27 02:44:51;;;;;;;6.85;6.55;;;;;;;21.74;65.18;99869.41;4996419;28;20031;-59
2022/05/27 02:47:46;;;;;;;7.00;6.70;;;;;;;21.72;64.19;99874.25;4996477;28;20492;-59
2022/05/27 02:50:23;;;;;;;;;;;;;;;21.72;64.44;99871.53;4996871;28;20477;-58
2022/05/27 02:53:22;;;;;;;7.55;7.25;;;;;;;21.73;64.96;99873.22;4996461;28;19920;-59
2022/05/27 02:56:06;;;;;;;6.90;6.60;;;;;;;21.75;65.01;99873.81;4996405;28;20026;-59
2022/05/27 02:58:32;;;;;;;7.13;6.83;;;;;;;21.73;64.26;99873.22;4996223;28;20088;-58
2022/05/27 03:00:57;;;;;;;7.18;6.88;;;;;;;21.71;64.75;99814.31;4996367;28;20030;-59
2022/05/27 03:03:23;;;;;;;8.35;7.95;;;;;;;21.73;64.44;99813.03;4996140;28;20034;-59
2022/05/27 03:05:54;;;;;;;7.13;6.82;;;;;;;21.75;64.87;99808.16;4996496;28;20022;-59
2022/05/27 03:08:30;;;;;;;7.18;6.88;;;;;;;21.75;65.41;99903.06;4996109;28;20022;-59
2022/05/27 03:11:01;;;;;;;7.40;7.10;;;;;;;21.75;65.17;99865.63;4996062;28;20058;-59
2022/05/27 03:13:37;;;;;;;7.20;6.90;;;;;;;21.73;65.76;99855.97;4996104;28;20026;-59
2022/05/27 03:16:31;;;;;;;7.13;6.82;;;;;;;21.72;65.40;99859.75;4996085;28;20023;-59
2022/05/27 03:19:25;;;;;;;7.18;6.88;;;;;;;21.73;65.24;99856.78;4995386;28;20043;-58
2022/05/27 03:22:08;;;;;;;7.25;6.95;;;;;;;21.72;65.27;99857.84;4995748;28;20055;-59
2022/05/27 03:24:52;;;;;;;7.27;6.97;;;;;;;21.73;65.63;99851.31;4994427;28;20026;-59
2022/05/27 03:27:24;;;;;;;7.10;6.80;;;;;;;21.74;65.50;99853.00;4995893;28;20056;-59
2022/05/27 03:30:12;;;;;;;7.00;6.70;;;;;;;21.72;65.38;99855.13;4996010;28;20038;-59
2022/05/27 03:32:45;;;;;;;7.30;7.00;;;;;;;21.71;65.44;99842.50;4994362;28;20069;-58
2022/05/27 03:35:26;;;;;;;6.90;6.60;;;;;;;21.74;65.65;99842.06;4995708;28;20026;-59
2022/05/27 03:38:04;;;;;;;6.97;6.68;;;;;;;21.74;65.48;99847.53;4995683;28;20027;-58
2022/05/27 03:40:44;;;;;;;7.70;7.30;;;;;;;21.72;65.74;99846.91;4995608;28;20023;-59
2022/05/27 03:43:11;;;;;;;7.38;7.07;;;;;;;21.71;65.46;99837.03;4995563;28;20030;-59
2022/05/27 03:45:55;;;;;;;7.10;6.80;;;;;;;21.71;65.71;99842.50;4995469;28;20030;-59
2022/05/27 03:48:22;;;;;;;6.80;6.50;;;;;;;21.75;66.12;99842.91;4994247;28;20073;-59
2022/05/27 03:50:50;;;;;;;7.00;6.70;;;;;;;21.74;66.11;99847.53;4995254;28;20035;-58
2022/05/27 03:53:16;;;;;;;7.25;6.95;;;;;;;21.75;65.93;99843.72;4995244;28;20121;-59
2022/05/27 03:55:44;;;;;;;6.93;6.60;;;;;;;21.77;65.84;99841.63;4995289;28;20104;-59
2022/05/27 03:58:14;;;;;;;6.95;6.65;;;;;;;21.77;65.57;99844.34;4995285;28;20034;-59
2022/05/27 04:00:41;;;;;;;6.85;6.55;;;;;;;21.73;66.01;99840.38;4995123;28;20410;-59
2022/05/27 04:03:07;;;;;;;0.22;0.20;;;;;;;22.14;64.81;99828.19;4995282;28;20080;-59
2022/05/27 04:05:32;;;;;;;0.45;0.10;;;;;;;22.47;64.19;99831.53;4995239;28;20022;-59
2022/05/27 04:07:58;;;;;;;0.17;0.17;;;;;;;22.73;64.72;99824.16;4995310;28;20022;-58
2022/05/27 04:10:23;;;;;;;0.30;0.20;;;;;;;22.95;64.07;99819.97;4994858;28;20113;-59
2022/05/27 04:12:49;;;;;;;0.45;0.03;;;;;;;23.11;64.17;99822.13;4995832;28;20026;-59
2022/05/27 04:15:14;;;;;;;0.10;0.10;;;;;;;23.26;64.21;99807.19;4994975;28;20088;-58
2022/05/27 04:17:41;;;;;;;0.25;0.17;;;;;;;23.38;65.04;99805.38;4994789;28;20589;-58
2022/05/27 04:20:10;;;;;;;0.10;0.10;;;;;;;23.51;65.03;99805.19;4994899;28;20037;-58
2022/05/27 04:22:35;;;;;;;0.15;0.10;;;;;;;23.63;66.00;99808.88;4994613;28;20402;-58
2022/05/27 04:25:01;;;;;;;0.13;0.10;;;;;;;23.74;66.25;99803.69;4994751;28;20022;-58
2022/05/27 04:27:28;;;;;;;0.15;0.10;;;;;;;23.83;66.52;99796.78;4994580;28;20356;-58
2022/05/27 04:29:55;;;;;;;0.10;0.10;;;;;;;23.91;66.57;99802.81;4994707;28;20358;-58
2022/05/27 04:32:21;;;;;;;0.15;0.15;;;;;;;24.00;66.84;99800.56;4993303;28;20033;-58
2022/05/27 04:34:48;;;;;;;0.05;0.05;;;;;;;24.11;67.44;99794.28;4994607;28;20052;-58
2022/05/27 04:37:14;;;;;;;0.35;0.10;;;;;;;24.19;67.45;99795.88;4994660;28;20029;-58
2022/05/27 04:39:39;;;;;;;0.10;0.10;;;;;;;23.73;67.03;99802.84;4994524;28;20018;-58
2022/05/27 04:42:05;;;;;;;0.20;0.10;;;;;;;23.23;65.91;99793.94;4994546;28;20019;-59
2022/05/27 04:44:31;;;;;;;0.20;0.10;;;;;;;23.13;63.64;99801.84;4994173;28;20389;-58
2022/05/27 04:46:56;;;;;;;0.30;0.00;;;;;;;22.86;61.08;99796.66;4994352;28;20022;-58
2022/05/27 04:52:06;;;;;;;0.20;0.10;;;;;;;22.47;59.29;99801.41;4994366;28;20032;-58
2022/05/27 04:54:31;;;;;;;1.95;0.10;;;;;;;22.35;59.50;99799.63;4994055;28;20026;-58
2022/05/27 04:56:57;;;;;;;0.82;0.20;;;;;;;22.22;59.13;99800.56;4994882;28;20030;-58
2022/05/27 04:59:24;;;;;;;0.45;0.10;;;;;;;22.26;57.13;99795.47;4993926;28;20050;-58
2022/05/27 05:01:49;;;;;;;1.73;0.20;;;;;;;22.04;57.84;99801.28;4994254;28;20026;-59
2022/05/27 05:04:14;;;;;;;1.20;0.13;;;;;;;22.01;57.63;99793.50;4994044;28;20118;-58
2022/05/27 05:06:40;;;;;;;1.00;0.20;;;;;;;22.05;57.33;99799.41;4993907;28;20101;-59
2022/05/27 05:09:05;;;;;;;0.63;0.20;;;;;;;21.97;57.06;99785.94;4992701;28;20032;-58
2022/05/27 05:11:30;;;;;;;0.20;0.10;;;;;;;21.93;56.46;99778.19;4993878;28;20066;-58
2022/05/27 05:13:56;;;;;;;0.52;0.20;;;;;;;21.96;56.59;99778.78;4992589;28;20030;-58
2022/05/27 05:16:21;;;;;;;0.47;0.10;;;;;;;21.86;56.69;99777.41;4993757;28;20022;-59
2022/05/27 05:18:47;;;;;;;2.10;0.20;;;;;;;21.82;56.67;99778.88;4993787;28;20018;-58
2022/05/27 05:21:13;;;;;;;0.45;0.20;;;;;;;21.83;55.79;99772.34;4993563;28;20072;-58
2022/05/27 05:23:38;;;;;;;0.85;0.00;;;;;;;21.76;57.06;99779.75;4993796;28;20121;-59
2022/05/27 05:26:04;;;;;;;0.40;0.20;;;;;;;21.73;56.18;99768.41;4993720;28;20022;-58
2022/05/27 05:28:29;;;;;;;0.30;0.20;;;;;;;21.66;56.84;99773.06;4993400;28;20029;-58
2022/05/27 05:30:54;;;;;;;1.27;0.57;;;;;;;21.72;57.18;99773.06;4993530;28;20064;-58
2022/05/27 05:33:19;;;;;;;1.30;0.50;;;;;;;21.72;56.38;99767.59;4993439;28;20033;-58
2022/05/27 05:35:46;;;;;;;0.10;0.10;;;;;;;21.70;57.44;99769.69;4993506;28;20076;-58
2022/05/27 05:38:12;;;;;;;0.65;0.30;;;;;;;21.81;57.32;99763.50;4993449;28;20050;-58
2022/05/27 05:40:39;;;;;;;1.15;0.25;;;;;;;21.75;56.84;99758.94;4993351;28;20486;-57
2022/05/27 05:43:04;;;;;;;0.75;0.30;;;;;;;21.81;57.09;99760.78;4994472;28;20385;-55
2022/05/27 05:45:29;;;;;;;0.68;0.20;;;;;;;21.82;57.95;99762.47;4993485;28;20462;-58
2022/05/27 05:47:55;;;;;;;1.23;0.25;;;;;;;21.92;57.08;99757.34;4993377;28;20466;-58
2022/05/27 05:50:20;;;;;;;1.15;0.20;;;;;;;21.95;57.29;99760.69;4993142;28;20034;-58
2022/05/27 05:52:46;;;;;;;1.88;0.30;;;;;;;21.93;57.18;99761.75;4993451;28;20026;-57
2022/05/27 05:55:13;;;;;;;0.35;0.20;;;;;;;21.92;58.04;99762.81;4991998;28;20026;-59
2022/05/27 05:57:41;;;;;;;0.15;0.10;;;;;;;21.91;57.85;99761.16;4993174;28;20068;-59
2022/05/27 06:00:08;;;;;;;0.70;0.30;;;;;;;21.87;58.54;99754.44;4993240;28;20105;-58
2022/05/27 06:02:33;;;;;;;0.10;0.10;;;;;;;21.94;57.84;99759.88;4992941;28;20042;-58
2022/05/27 06:04:59;;;;;;;0.40;0.25;;;;;;;22.04;56.55;99756.66;4993211;28;20030;-58
2022/05/27 06:07:24;;;;;;;0.20;0.20;;;;;;;21.90;58.32;99751.25;4993349;28;20525;-58
2022/05/27 06:09:49;;;;;;;0.40;0.20;;;;;;;21.97;57.58;99747.63;4993135;28;20113;-59
2022/05/27 06:12:15;;;;;;;0.32;0.20;;;;;;;22.02;58.20;99756.03;4994317;28;20069;-58
2022/05/27 06:14:40;;;;;;;0.15;0.10;;;;;;;22.00;57.06;99758.13;4997090;28;20478;-58
2022/05/27 06:17:06;;;;;;;1.50;0.28;;;;;;;21.95;58.05;99760.69;4997158;28;20033;-58
2022/05/27 06:19:31;;;;;;;2.33;0.40;;;;;;;21.91;57.22;99765.78;4996973;28;20084;-57
2022/05/27 06:21:56;;;;;;;0.10;0.10;;;;;;;21.98;58.19;99754.78;4996950;28;20046;-58
2022/05/27 06:24:22;;;;;;;0.43;0.20;;;;;;;21.97;57.91;99753.94;4996809;28;20065;-58
2022/05/27 06:26:47;;;;;;;0.17;0.10;;;;;;;21.97;57.16;99758.56;4997029;28;20022;-58
2022/05/27 06:34:40;;;;;;;0.25;0.10;;;;;;;22.01;58.10;99748.91;4997258;28;20122;-58
2022/05/27 06:37:17;;;;;;;1.48;0.30;;;;;;;22.04;57.83;99749.28;4996671;28;20109;-58
2022/05/27 06:39:43;;;;;;;0.32;0.17;;;;;;;22.04;57.68;99754.75;4996751;28;20027;-58
2022/05/27 06:42:10;;;;;;;0.30;0.10;;;;;;;22.05;57.26;99759.19;4995422;28;20030;-58
2022/05/27 06:44:36;;;;;;;0.57;0.10;;;;;;;22.04;57.61;99759.38;4996540;28;20101;-58
2022/05/27 06:47:02;;;;;;;0.38;0.10;;;;;;;22.01;57.42;99754.38;4996626;28;20022;-58
2022/05/27 06:49:28;;;;;;;0.60;0.57;;;;;;;22.00;58.11;99763.59;4996552;28;20042;-58
2022/05/27 06:51:53;;;;;;;0.30;0.10;;;;;;;22.04;57.82;99764.88;4996455;28;20068;-58
2022/05/27 06:54:19;;;;;;;0.30;0.20;;;;;;;22.05;57.92;99761.09;4996352;28;20454;-58
2022/05/27 06:56:45;;;;;;;2.30;0.10;;;;;;;21.97;59.09;99764.06;4996766;28;20030;-59
2022/05/27 06:59:12;;;;;;;0.43;0.35;;;;;;;21.96;58.10;99767.84;4996347;28;20033;-58
2022/05/27 07:01:38;;;;;;;0.60;0.20;;;;;;;22.05;58.71;99761.94;4996335;28;20462;-59
2022/05/27 07:04:04;;;;;;;0.63;0.20;;;;;;;22.01;58.79;99765.31;4996365;28;20034;-59
2022/05/27 07:06:35;;;;;;;1.23;0.35;;;;;;;21.97;58.53;99758.56;4996068;28;20045;-60
2022/05/27 07:09:03;;;;;;;0.95;0.32;;;;;;;22.02;58.62;99758.78;4996246;28;20116;-59
2022/05/27 07:11:29;;;;;;;1.20;0.30;;;;;;;21.97;58.90;99759.41;4995861;28;20425;-59
2022/05/27 07:13:54;;;;;;;0.40;0.10;;;;;;;21.95;59.10;99760.69;4996173;28;20026;-59
2022/05/27 07:16:19;;;;;;;0.20;0.15;;;;;;;21.98;58.52;99771.19;4996144;28;20069;-58
2022/05/27 07:18:44;;;;;;;0.30;0.13;;;;;;;21.93;58.91;99769.97;4996073;28;20485;-58
2022/05/27 07:21:10;;;;;;;0.85;0.35;;;;;;;21.95;59.14;99761.53;4996957;28;20105;-57
2022/05/27 07:23:35;;;;;;;0.77;0.20;;;;;;;22.02;59.02;99767.00;4995517;28;20026;-58
2022/05/27 07:26:01;;;;;;;0.40;0.17;;;;;;;22.06;58.98;99762.78;4994603;28;20037;-57
2022/05/27 07:28:27;;;;;;;0.40;0.25;;;;;;;22.03;58.67;99768.66;4995727;28;20476;-57
2022/05/27 07:30:53;;;;;;;0.20;0.20;;;;;;;22.04;58.40;99762.13;4995932;28;20077;-58
2022/05/27 07:33:20;;;;;;;0.47;0.20;;;;;;;22.08;59.15;99766.13;4995620;28;20260;-58
2022/05/27 07:35:46;;;;;;;0.60;0.32;;;;;;;22.05;59.43;99766.56;4995696;28;20022;-58
2022/05/27 07:38:12;;;;;;;0.40;0.30;;;;;;;22.06;58.82;99769.09;4995625;28;20414;-58
2022/05/27 07:40:37;;;;;;;0.57;0.40;;;;;;;21.93;58.91;99763.66;4995511;28;20018;-58
2022/05/27 07:43:03;;;;;;;1.15;0.40;;;;;;;21.99;59.92;99761.94;4994363;28;20516;-58
2022/05/27 07:45:29;;;;;;;1.98;0.63;;;;;;;21.92;58.84;99762.81;4995369;28;20097;-58
2022/05/27 07:47:55;;;;;;;0.20;0.20;;;;;;;21.89;58.95;99765.16;4995541;28;20033;-58
2022/05/27 07:50:22;;;;;;;0.20;0.20;;;;;;;22.01;59.40;99766.16;4995260;28;20031;-58
2022/05/27 07:52:48;;;;;;;0.20;0.17;;;;;;;21.96;58.92;99767.84;4995676;28;20469;-58
2022/05/27 07:55:13;;;;;;;0.43;0.10;;;;;;;22.04;58.87;99764.88;4995399;28;20109;-58
2022/05/27 07:57:47;;;;;;;0.52;0.40;;;;;;;22.02;59.56;99767.00;4993994;28;20102;-58
2022/05/27 08:00:20;;;;;;;0.65;0.38;;;;;;;22.04;58.01;99770.34;4995287;28;20046;-58
2022/05/27 08:02:46;;;;;;;0.75;0.38;;;;;;;22.00;59.79;99775.38;4995247;28;20034;-58
2022/05/27 08:05:15;;;;;;;1.75;0.28;;;;;;;22.01;58.56;99766.16;4995224;28;20466;-58
2022/05/27 08:07:41;;;;;;;0.45;0.20;;;;;;;22.03;58.81;99768.66;4995072;28;20428;-58
2022/05/27 08:10:10;;;;;;;1.13;0.50;;;;;;;22.01;58.86;99773.53;4996450;28;20117;-58
2022/05/27 08:12:36;;;;;;;0.55;0.22;;;;;;;22.06;58.26;99769.09;4995487;28;20030;-58
2022/05/27 08:15:02;;;;;;;0.47;0.30;;;;;;;22.02;58.83;99772.47;4995043;28;20524;-58
2022/05/27 08:17:28;;;;;;;1.55;0.30;;;;;;;22.02;59.62;99767.00;4994766;28;20131;-58
2022/05/27 08:19:53;;;;;;;0.70;0.40;;;;;;;21.96;59.01;99767.84;4994928;28;20101;-58
2022/05/27 08:22:19;;;;;;;1.60;0.30;;;;;;;21.95;58.60;99768.91;4994556;28;20042;-58
2022/05/27 08:24:44;;;;;;;0.20;0.20;;;;;;;21.98;59.19;99768.47;4994803;28;20026;-58
2022/05/27 08:27:10;;;;;;;0.20;0.20;;;;;;;22.12;58.80;99772.81;4994821;28;20109;-58
2022/05/27 08:29:36;;;;;;;0.93;0.22;;;;;;;22.05;59.22;99774.78;4994662;28;20113;-58
2022/05/27 08:32:03;;;;;;;0.63;0.30;;;;;;;22.06;59.44;99773.72;4994597;28;20037;-58
2022/05/27 08:39:58;;;;;;;0.75;0.30;;;;;;;22.04;59.24;99767.59;4994605;28;20108;-58
2022/05/27 08:42:49;;;;;;;0.30;0.20;;;;;;;22.02;59.34;99770.56;4994319;28;20506;-58
2022/05/27 08:45:21;;;;;;;0.60;0.10;;;;;;;21.98;58.76;99768.47;4994419;28;20030;-58
2022/05/27 08:47:54;;;;;;;0.75;0.40;;;;;;;22.06;60.16;99765.50;4994460;28;20105;-58
2022/05/27 08:50:26;;;;;;;0.60;0.20;;;;;;;22.01;59.73;99765.31;4992814;28;20053;-59
2022/05/27 08:53:22;;;;;;;0.75;0.10;;;;;;;22.02;60.09;99767.00;4994334;28;20034;-59
2022/05/27 09:01:39;;;;;;;0.10;0.10;;;;;;;22.09;59.03;99767.78;4994647;28;20025;-58
2022/05/27 09:04:23;;;;;;;0.73;0.40;;;;;;;22.03;58.74;99769.50;4994103;28;20041;-58
2022/05/27 09:06:49;;;;;;;0.77;0.43;;;;;;;22.02;58.62;99772.47;4994062;28;20030;-58
2022/05/27 09:09:24;;;;;;;2.20;0.68;;;;;;;21.98;59.28;99772.03;4993916;28;20034;-58
2022/05/27 09:12:04;;;;;;;0.80;0.32;;;;;;;22.02;58.67;99772.47;4993858;28;20037;-59
2022/05/27 09:14:31;;;;;;;0.80;0.25;;;;;;;22.00;59.32;99769.06;4993727;28;20027;-58
2022/05/27 09:17:02;;;;;;;0.35;0.20;;;;;;;22.00;59.23;99769.91;4993945;28;20417;-58
2022/05/27 09:19:48;;;;;;;0.22;0.20;;;;;;;22.10;59.54;99774.94;4993584;28;20030;-58
2022/05/27 09:22:28;;;;;;;0.65;0.22;;;;;;;22.07;58.63;99767.19;4993531;28;20046;-58
2022/05/27 09:25:25;;;;;;;0.98;0.40;;;;;;;22.05;59.24;99763.84;4993759;28;20025;-58
2022/05/27 09:28:23;;;;;;;0.32;0.20;;;;;;;22.06;57.97;99760.03;4993734;28;20212;-58
2022/05/27 09:30:50;;;;;;;0.73;0.30;;;;;;;21.99;58.46;99756.47;4993914;28;20033;-57
2022/05/27 09:33:20;;;;;;;0.57;0.50;;;;;;;21.98;59.41;99754.78;4993622;28;20026;-58
2022/05/27 09:35:49;;;;;;;0.10;0.10;;;;;;;22.02;59.78;99756.03;4992625;28;20029;-58
2022/05/27 09:38:28;;;;;;;1.00;0.20;;;;;;;21.98;59.62;99750.16;4994094;28;20034;-59
2022/05/27 09:40:58;;;;;;;0.38;0.20;;;;;;;22.04;58.80;99754.75;4993567;28;20041;-58
2022/05/27 09:43:32;;;;;;;0.65;0.20;;;;;;;22.08;59.06;99739.59;4993294;28;20026;-58
2022/05/27 09:46:05;;;;;;;0.77;0.20;;;;;;;22.13;60.20;99741.66;4993446;28;20022;-58
2022/05/27 09:48:31;;;;;;;2.03;0.35;;;;;;;22.01;60.01;99737.94;4992386;28;20035;-58
2022/05/27 09:51:00;;;;;;;0.20;0.17;;;;;;;22.08;59.25;99733.28;4993260;28;20045;-58
2022/05/27 09:53:36;;;;;;;0.20;0.10;;;;;;;22.06;59.57;99736.25;4992459;28;20386;-58
2022/05/27 09:56:08;;;;;;;0.60;0.30;;;;;;;22.06;58.88;99732.66;4993264;28;20096;-58
2022/05/27 09:58:36;;;;;;;0.40;0.20;;;;;;;22.03;59.07;99730.34;4993112;28;20026;-59
2022/05/27 10:01:26;;;;;;;1.48;0.40;;;;;;;22.07;58.81;99731.59;4993199;28;20026;-58
2022/05/27 10:04:06;;;;;;;0.57;0.30;;;;;;;22.01;58.71;99729.75;4993301;28;20030;-59
2022/05/27 10:06:35;;;;;;;0.45;0.22;;;;;;;22.05;58.49;99720.88;4993297;28;20078;-59
2022/05/27 10:09:04;;;;;;;0.30;0.25;;;;;;;22.08;58.53;99712.22;4993248;28;20026;-59
2022/05/27 10:11:31;;;;;;;0.57;0.20;;;;;;;22.03;59.37;99712.03;4992846;28;20062;-59
2022/05/27 10:14:06;;;;;;;0.40;0.40;;;;;;;22.08;58.82;99716.84;4993164;28;20030;-59
2022/05/27 10:16:31;;;;;;;0.43;0.30;;;;;;;22.06;58.63;99716.25;4993316;28;20053;-58
2022/05/27 10:19:22;;;;;;;0.75;0.20;;;;;;;22.04;59.34;99721.06;4993362;28;20026;-58
2022/05/27 10:21:50;;;;;;;0.25;0.13;;;;;;;22.07;59.70;99723.41;4992929;28;20045;-59
2022/05/27 10:24:24;;;;;;;0.30;0.20;;;;;;;22.09;58.25;99710.31;4992950;28;20029;-59
2022/05/27 10:27:11;;;;;;;0.45;0.38;;;;;;;22.05;60.22;99703.63;4993067;28;20027;-59
2022/05/27 10:29:52;;;;;;;1.95;0.20;;;;;;;22.08;57.76;99712.22;4993127;28;20027;-58
2022/05/27 10:32:25;;;;;;;0.57;0.20;;;;;;;22.05;59.52;99706.38;4993065;28;20466;-59
2022/05/27 10:34:50;;;;;;;0.40;0.40;;;;;;;22.08;58.95;99711.38;4993158;28;20037;-59
2022/05/27 10:37:39;;;;;;;0.20;0.20;;;;;;;22.02;59.82;99706.78;4992854;28;20026;-59
2022/05/27 10:40:12;;;;;;;0.60;0.20;;;;;;;22.05;58.93;99703.63;4991580;28;20026;-59
2022/05/27 10:42:37;;;;;;;1.20;0.30;;;;;;;22.08;58.18;99698.53;4993097;28;20029;-58
2022/05/27 10:45:15;;;;;;;0.30;0.17;;;;;;;22.05;60.16;99706.38;4992851;28;20105;-59
2022/05/27 10:47:59;;;;;;;1.75;0.20;;;;;;;22.05;58.59;99695.41;4992846;28;20298;-59
2022/05/27 10:50:32;;;;;;;1.30;0.40;;;;;;;22.09;60.09;99693.91;4992639;28;20026;-59
2022/05/27 10:53:28;;;;;;;1.65;0.22;;;;;;;22.05;58.78;99690.78;4992793;28;20027;-59
2022/05/27 10:56:13;;;;;;;0.70;0.22;;;;;;;22.08;58.02;99689.50;4992724;28;20027;-59
2022/05/27 11:02:06;;;;;;;1.30;0.20;;;;;;;22.05;59.94;99687.22;4996267;28;20053;-58
2022/05/27 11:04:53;;;;;;;0.82;0.40;;;;;;;22.10;58.78;99692.84;4996396;28;20238;-59
2022/05/27 11:07:49;;;;;;;0.93;0.30;;;;;;;22.07;59.95;99693.28;4996198;28;20061;-59
2022/05/27 11:10:25;;;;;;;1.27;0.10;;;;;;;22.09;59.05;99691.16;4996060;28;20030;-59
2022/05/27 11:15:56;;;;;;;0.40;0.20;;;;;;;22.09;59.33;99685.69;4996247;28;20041;-58
2022/05/27 11:18:39;;;;;;;1.38;0.10;;;;;;;22.01;58.40;99677.75;4996010;28;20037;-59
2022/05/27 11:21:12;;;;;;;1.55;0.40;;;;;;;22.07;59.26;99680.44;4996043;28;20018;-58
2022/05/27 11:24:03;;;;;;;0.43;0.20;;;;;;;22.10;59.01;99682.72;4995781;28;20100;-58
2022/05/27 11:26:41;;;;;;;0.32;0.10;;;;;;;22.07;59.39;99687.81;4994502;28;20046;-59
2022/05/27 11:29:13;;;;;;;0.17;0.15;;;;;;;22.13;57.93;99681.44;4996051;28;20026;-58
2022/05/27 11:31:54;;;;;;;0.35;0.13;;;;;;;22.10;59.09;99673.69;4995969;28;20042;-59
2022/05/27 11:34:54;;;;;;;0.45;0.30;;;;;;;22.05;59.10;99679.00;4995950;28;20377;-59
2022/05/27 11:37:29;;;;;;;1.50;0.20;;;;;;;22.08;58.85;99686.75;4994613;28;20033;-59
2022/05/27 11:40:28;;;;;;;0.30;0.20;;;;;;;22.08;58.28;99673.06;4995707;28;20022;-58
2022/05/27 11:43:19;;;;;;;0.70;0.20;;;;;;;22.06;59.67;99678.78;4973938;28;20045;-58
2022/05/27 11:46:14;;;;;;;1.10;0.30;;;;;;;22.04;59.60;99677.28;4973743;28;20023;-59
2022/05/27 11:49:07;;;;;;;0.45;0.30;;;;;;;22.08;59.48;99681.28;4974115;28;20486;-59
2022/05/27 11:51:50;;;;;;;0.20;0.20;;;;;;;22.10;59.53;99687.38;4973416;28;20058;-58
2022/05/27 11:54:29;;;;;;;1.30;0.40;;;;;;;22.00;59.19;99690.56;4973658;28;20039;-58
2022/05/27 11:57:15;;;;;;;0.88;0.30;;;;;;;22.04;59.71;99689.06;4973659;28;20027;-59
2022/05/27 11:59:54;;;;;;;0.40;0.25;;;;;;;22.17;59.18;99694.47;4971203;28;20046;-58
2022/05/27 12:02:37;;;;;;;0.30;0.20;;;;;;;22.10;59.38;99690.09;4956982;28;20402;-59
2022/05/27 12:05:11;;;;;;;0.95;0.10;;;;;;;22.06;59.82;99681.50;4972312;28;20133;-59
2022/05/27 12:07:48;;;;;;;0.20;0.20;;;;;;;22.08;58.14;99686.75;4972254;28;20038;-58
2022/05/27 12:10:22;;;;;;;0.63;0.32;;;;;;;22.10;59.60;99682.72;4955416;28;20058;-58
2022/05/27 12:13:17;;;;;;;0.38;0.20;;;;;;;22.26;57.72;99686.81;4973167;28;20383;-59
2022/05/27 12:15:52;;;;;;;1.35;0.20;;;;;;;22.33;58.44;99684.81;4972242;28;20218;-59
2022/05/27 12:18:43;;;;;;;1.00;0.20;;;;;;;22.13;57.45;99695.97;4970296;28;20118;-58
2022/05/27 12:21:18;;;;;;;0.10;0.10;;;;;;;22.15;56.87;99695.72;4970220;23;20032;-58
2022/05/27 12:23:49;;;;;;;0.80;0.40;;;;;;;22.19;58.55;99696.97;5033791;28;20057;-58
2022/05/27 12:26:16;;;;;;;0.95;0.20;;;;;;;22.05;57.81;99688.03;5032847;28;20521;-59